createdAt,value
2023-05-21T00:02:17.465Z,60.70
2023-05-21T00:04:48.677Z,60.50
2023-05-21T00:07:15.628Z,60.60
2023-05-21T00:09:42.592Z,61.00
2023-05-21T00:12:09.983Z,61.00
2023-05-21T00:14:36.913Z,61.10
2023-05-21T00:17:03.985Z,60.70
2023-05-21T00:19:32.917Z,60.60
2023-05-21T00:22:02.353Z,60.60
2023-05-21T00:24:29.524Z,60.80
2023-05-21T00:26:56.728Z,60.20
2023-05-21T00:29:24.002Z,59.80
2023-05-21T00:31:52.331Z,60.00
2023-05-21T00:34:19.697Z,59.80
2023-05-21T00:36:46.742Z,59.70
2023-05-21T00:39:14.198Z,59.40
2023-05-21T00:41:43.220Z,59.50
2023-05-21T00:44:10.268Z,59.60
2023-05-21T00:46:37.278Z,59.50
2023-05-21T00:49:04.501Z,59.30
2023-05-21T00:51:31.759Z,59.00
2023-05-21T00:53:58.939Z,59.50
2023-05-21T00:56:27.511Z,59.60
2023-05-21T00:58:57.354Z,59.30
2023-05-21T01:01:27.598Z,59.00
2023-05-21T01:03:58.032Z,59.20
2023-05-21T01:06:25.842Z,59.10
2023-05-21T01:08:52.919Z,59.00
2023-05-21T01:11:22.115Z,58.90
2023-05-21T01:13:50.035Z,58.70
2023-05-21T01:16:17.969Z,58.40
2023-05-21T01:18:45.395Z,58.30
2023-05-21T01:21:12.523Z,58.10
2023-05-21T01:23:39.724Z,58.10
2023-05-21T01:26:07.441Z,58.40
2023-05-21T01:28:34.843Z,58.50
2023-05-21T01:31:16.775Z,58.80
2023-05-21T01:33:50.157Z,58.50
2023-05-21T01:36:26.404Z,58.10
2023-05-21T01:38:59.889Z,58.40
2023-05-21T01:41:29.477Z,58.00
2023-05-21T01:43:57.821Z,58.00
2023-05-21T01:46:27.901Z,58.10
2023-05-21T01:48:56.801Z,58.20
2023-05-21T01:51:24.095Z,58.20
2023-05-21T01:53:51.047Z,58.00
2023-05-21T01:56:18.063Z,58.10
2023-05-21T01:58:45.057Z,58.00
2023-05-21T02:01:12.124Z,58.30
2023-05-21T02:03:40.477Z,58.60
2023-05-21T02:06:07.439Z,58.60
2023-05-21T02:08:34.359Z,59.20
2023-05-21T02:11:01.329Z,58.70
2023-05-21T02:13:29.319Z,58.70
2023-05-21T02:15:56.500Z,58.70
2023-05-21T02:18:23.557Z,58.80
2023-05-21T02:20:50.507Z,59.40
2023-05-21T02:23:17.512Z,58.80
2023-05-21T02:25:45.361Z,58.50
2023-05-21T02:28:12.902Z,58.60
2023-05-21T02:30:39.851Z,58.50
2023-05-21T02:33:09.316Z,58.60
2023-05-21T02:35:36.762Z,59.30
2023-05-21T02:38:03.959Z,59.00
2023-05-21T02:40:30.934Z,59.40
2023-05-21T02:42:57.822Z,59.70
2023-05-21T02:45:24.918Z,58.80
2023-05-21T02:47:51.872Z,58.70
2023-05-21T02:50:18.947Z,58.70
2023-05-21T02:52:45.949Z,58.70
2023-05-21T02:55:12.993Z,58.80
2023-05-21T02:57:39.961Z,58.60
2023-05-21T03:00:08.420Z,58.50
2023-05-21T03:02:35.483Z,58.30
2023-05-21T03:05:02.979Z,58.50
2023-05-21T03:07:29.889Z,58.40
2023-05-21T03:09:56.869Z,58.40
2023-05-21T03:12:23.803Z,58.70
2023-05-21T03:14:51.478Z,58.90
2023-05-21T03:17:19.075Z,58.50
2023-05-21T03:19:46.137Z,59.00
2023-05-21T03:22:13.028Z,58.90
2023-05-21T03:24:40.030Z,59.00
2023-05-21T03:27:07.431Z,58.90
2023-05-21T03:29:34.909Z,59.10
2023-05-21T03:32:02.759Z,58.90
2023-05-21T03:34:30.329Z,58.80
2023-05-21T03:36:57.288Z,58.80
2023-05-21T03:39:24.296Z,58.90
2023-05-21T03:41:51.613Z,58.90
2023-05-21T03:44:18.511Z,59.00
2023-05-21T03:46:45.770Z,58.70
2023-05-21T03:49:12.740Z,59.00
2023-05-21T03:51:39.729Z,59.30
2023-05-21T03:54:06.719Z,59.60
2023-05-21T03:56:33.652Z,59.60
2023-05-21T03:59:01.336Z,59.80
2023-05-21T04:01:28.520Z,59.70
2023-05-21T04:03:55.938Z,60.00
2023-05-21T04:06:23.108Z,60.30
2023-05-21T04:08:50.219Z,59.90
2023-05-21T04:11:17.111Z,60.10
2023-05-21T04:13:44.010Z,60.10
2023-05-21T04:16:11.063Z,60.10
2023-05-21T04:18:38.086Z,60.10
2023-05-21T04:21:05.192Z,60.10
2023-05-21T04:23:32.187Z,60.20
2023-05-21T04:25:59.185Z,60.30
2023-05-21T04:28:28.961Z,59.90
2023-05-21T04:30:58.833Z,60.00
2023-05-21T04:33:25.786Z,59.80
2023-05-21T04:35:52.801Z,59.80
2023-05-21T04:38:20.050Z,60.30
2023-05-21T04:40:52.421Z,60.00
2023-05-21T04:43:26.210Z,59.80
2023-05-21T04:45:55.154Z,60.00
2023-05-21T04:48:27.002Z,60.00
2023-05-21T04:50:54.254Z,60.10
2023-05-21T04:53:21.989Z,60.20
2023-05-21T04:55:49.326Z,60.10
2023-05-21T04:58:18.414Z,60.20
2023-05-21T05:00:51.802Z,60.10
2023-05-21T05:03:18.950Z,60.20
2023-05-21T05:05:46.331Z,60.30
2023-05-21T05:08:15.594Z,60.20
2023-05-21T05:10:43.114Z,60.10
2023-05-21T05:13:10.135Z,59.90
2023-05-21T05:15:37.317Z,59.80
2023-05-21T05:18:04.612Z,60.00
2023-05-21T05:20:31.553Z,59.90
2023-05-21T05:22:58.477Z,60.40
2023-05-21T05:25:25.539Z,60.30
2023-05-21T05:27:52.407Z,60.30
2023-05-21T05:30:20.142Z,60.20
2023-05-21T05:32:47.264Z,60.80
2023-05-21T05:35:14.180Z,61.40
2023-05-21T05:37:41.603Z,60.00
2023-05-21T05:40:08.906Z,60.80
2023-05-21T05:42:35.907Z,60.70
2023-05-21T05:45:02.908Z,60.80
2023-05-21T05:47:29.860Z,60.60
2023-05-21T05:49:56.946Z,60.60
2023-05-21T05:52:23.911Z,60.60
2023-05-21T05:54:50.841Z,60.40
2023-05-21T05:57:17.787Z,60.20
2023-05-21T05:59:44.764Z,60.20
2023-05-21T06:02:11.824Z,60.10
2023-05-21T06:04:38.747Z,60.40
2023-05-21T06:07:05.737Z,60.40
2023-05-21T06:09:32.634Z,60.40
2023-05-21T06:11:59.646Z,60.30
2023-05-21T06:14:26.758Z,60.40
2023-05-21T06:16:53.643Z,59.90
2023-05-21T06:19:20.879Z,60.10
2023-05-21T06:21:48.124Z,60.00
2023-05-21T06:24:15.068Z,60.20
2023-05-21T06:26:42.482Z,59.80
2023-05-21T06:29:09.463Z,60.00
2023-05-21T06:31:36.580Z,60.00
2023-05-21T06:34:04.145Z,59.90
2023-05-21T06:36:32.552Z,59.70
2023-05-21T06:38:59.654Z,59.00
2023-05-21T06:41:26.767Z,58.70
2023-05-21T06:43:53.732Z,58.70
2023-05-21T06:46:21.134Z,59.60
2023-05-21T06:48:48.204Z,58.80
2023-05-21T06:51:15.482Z,58.70
2023-05-21T06:53:42.496Z,59.00
2023-05-21T06:56:09.433Z,58.90
2023-05-21T06:58:36.595Z,58.40
2023-05-21T07:01:03.768Z,58.60
2023-05-21T07:03:30.895Z,58.30
2023-05-21T07:05:58.364Z,58.30
2023-05-21T07:08:25.308Z,58.70
2023-05-21T07:10:52.211Z,58.20
2023-05-21T07:13:19.197Z,57.80
2023-05-21T07:15:46.073Z,57.90
2023-05-21T07:18:13.388Z,58.20
2023-05-21T07:20:40.377Z,58.50
2023-05-21T07:23:07.260Z,58.70
2023-05-21T07:25:34.128Z,58.40
2023-05-21T07:28:01.394Z,58.20
2023-05-21T07:30:28.305Z,58.30
2023-05-21T07:32:55.287Z,58.30
2023-05-21T07:35:22.405Z,58.20
2023-05-21T07:37:49.414Z,57.80
2023-05-21T07:40:16.529Z,58.00
2023-05-21T07:42:43.468Z,58.20
2023-05-21T07:45:10.629Z,57.80
2023-05-21T07:47:37.548Z,57.90
2023-05-21T07:50:05.116Z,57.70
2023-05-21T07:52:32.041Z,56.90
2023-05-21T07:54:59.210Z,56.30
2023-05-21T07:57:26.192Z,56.20
2023-05-21T07:59:53.099Z,56.80
2023-05-21T08:02:20.142Z,56.60
2023-05-21T08:04:47.451Z,56.30
2023-05-21T08:07:17.023Z,56.70
2023-05-21T08:09:43.918Z,56.80
2023-05-21T08:12:11.238Z,56.20
2023-05-21T08:14:38.210Z,56.40
2023-05-21T08:17:05.200Z,56.10
2023-05-21T08:19:32.582Z,56.80
2023-05-21T08:21:59.614Z,56.30
2023-05-21T08:24:26.646Z,56.60
2023-05-21T08:26:53.800Z,56.40
2023-05-21T08:29:20.905Z,56.20
2023-05-21T08:31:47.841Z,56.00
2023-05-21T08:34:14.879Z,55.90
2023-05-21T08:36:46.311Z,55.60
2023-05-21T08:39:13.414Z,54.90
2023-05-21T08:41:41.500Z,55.10
2023-05-21T08:44:12.662Z,54.80
2023-05-21T08:46:42.815Z,55.50
2023-05-21T08:49:14.197Z,55.70
2023-05-21T08:51:41.854Z,55.90
2023-05-21T08:54:09.523Z,56.50
2023-05-21T08:56:36.749Z,55.90
2023-05-21T08:59:03.663Z,54.70
2023-05-21T09:01:33.590Z,54.80
2023-05-21T09:04:16.234Z,53.00
2023-05-21T09:06:47.778Z,52.00
2023-05-21T09:09:21.781Z,50.00
2023-05-21T09:11:49.644Z,48.40
2023-05-21T09:14:17.539Z,47.80
2023-05-21T09:16:48.745Z,46.90
2023-05-21T09:19:15.856Z,45.50
2023-05-21T09:21:42.768Z,44.00
2023-05-21T09:24:10.843Z,43.20
2023-05-21T09:26:37.814Z,41.90
2023-05-21T09:29:04.782Z,40.70
2023-05-21T09:31:32.982Z,40.80
2023-05-21T09:34:00.207Z,39.70
2023-05-21T09:36:29.465Z,39.60
2023-05-21T09:38:58.496Z,39.40
2023-05-21T09:41:36.308Z,39.80
2023-05-21T09:44:03.903Z,40.70
2023-05-21T09:46:48.814Z,40.90
2023-05-21T09:49:28.935Z,41.30
2023-05-21T09:51:59.587Z,41.50
2023-05-21T09:54:32.357Z,41.30
2023-05-21T09:57:02.624Z,42.00
2023-05-21T09:59:39.775Z,42.30
2023-05-21T10:02:21.716Z,43.10
2023-05-21T10:04:50.390Z,42.80
2023-05-21T10:07:26.170Z,42.80
2023-05-21T10:09:57.946Z,43.70
2023-05-21T10:12:25.550Z,43.10
2023-05-21T10:14:59.967Z,42.90
2023-05-21T10:17:28.283Z,42.90
2023-05-21T10:19:56.616Z,43.20
2023-05-21T10:22:25.676Z,43.40
2023-05-21T10:24:55.575Z,44.00
2023-05-21T10:27:23.232Z,44.20
2023-05-21T10:29:50.966Z,43.40
2023-05-21T10:32:18.583Z,43.60
2023-05-21T10:34:46.867Z,43.60
2023-05-21T10:37:14.409Z,43.70
2023-05-21T10:39:46.051Z,44.40
2023-05-21T10:42:31.476Z,44.50
2023-05-21T10:45:32.787Z,45.30
2023-05-21T10:48:18.397Z,45.50
2023-05-21T10:51:26.833Z,44.80
2023-05-21T10:54:15.089Z,44.00
2023-05-21T10:56:59.673Z,45.00
2023-05-21T10:59:36.550Z,45.20
2023-05-21T11:02:05.321Z,45.30
2023-05-21T11:04:33.069Z,46.20
2023-05-21T11:06:59.970Z,46.10
2023-05-21T11:09:28.015Z,45.50
2023-05-21T11:11:59.080Z,44.80
2023-05-21T11:14:31.863Z,45.10
2023-05-21T11:17:36.026Z,45.20
2023-05-21T11:20:10.708Z,45.10
2023-05-21T11:22:38.432Z,46.10
2023-05-21T11:25:06.594Z,45.10
2023-05-21T11:27:38.574Z,45.20
2023-05-21T11:30:25.813Z,46.00
2023-05-21T11:33:08.223Z,46.50
2023-05-21T11:35:50.476Z,46.40
2023-05-21T11:38:18.285Z,46.20
2023-05-21T11:40:55.359Z,45.70
2023-05-21T11:43:22.639Z,45.30
2023-05-21T11:45:53.102Z,44.90
2023-05-21T11:48:26.682Z,44.70
2023-05-21T11:50:54.712Z,44.70
2023-05-21T11:53:21.700Z,44.50
2023-05-21T11:55:48.730Z,44.60
2023-05-21T11:58:16.720Z,44.90
2023-05-21T12:00:43.715Z,45.30
2023-05-21T12:03:14.747Z,44.50
2023-05-21T12:05:51.544Z,44.60
2023-05-21T12:08:27.952Z,44.60
2023-05-21T12:11:01.894Z,44.70
2023-05-21T12:13:29.201Z,44.90
2023-05-21T12:15:56.196Z,44.70
2023-05-21T12:18:23.217Z,44.50
2023-05-21T12:20:52.248Z,44.30
2023-05-21T12:23:20.950Z,44.90
2023-05-21T12:25:48.017Z,44.10
2023-05-21T12:28:16.100Z,44.40
2023-05-21T12:30:43.109Z,44.80
2023-05-21T12:33:12.160Z,45.20
2023-05-21T12:35:39.159Z,45.70
2023-05-21T12:38:09.770Z,45.20
2023-05-21T12:40:39.025Z,45.40
2023-05-21T12:43:06.865Z,45.00
2023-05-21T12:45:34.045Z,44.70
2023-05-21T12:48:04.060Z,44.00
2023-05-21T12:50:32.734Z,44.10
2023-05-21T12:52:59.697Z,43.90
2023-05-21T12:55:26.721Z,44.20
2023-05-21T12:58:08.673Z,45.00
2023-05-21T13:00:36.856Z,44.90
2023-05-21T13:03:06.402Z,45.20
2023-05-21T13:05:33.817Z,43.70
2023-05-21T13:08:00.806Z,44.00
2023-05-21T13:10:27.765Z,44.10
2023-05-21T13:12:54.752Z,43.90
2023-05-21T13:15:21.784Z,43.90
2023-05-21T13:17:50.353Z,43.80
2023-05-21T13:20:26.624Z,43.90
2023-05-21T13:22:54.087Z,44.00
2023-05-21T13:25:24.655Z,44.70
2023-05-21T13:27:53.243Z,45.50
2023-05-21T13:30:21.992Z,45.80
2023-05-21T13:32:49.311Z,45.90
2023-05-21T13:35:17.105Z,45.50
2023-05-21T13:37:44.717Z,45.00
2023-05-21T13:40:16.896Z,43.90
2023-05-21T13:42:45.470Z,44.00
2023-05-21T13:45:15.593Z,43.80
2023-05-21T13:47:45.945Z,43.40
2023-05-21T13:50:13.451Z,42.50
2023-05-21T13:52:40.554Z,41.90
2023-05-21T13:55:08.355Z,41.20
2023-05-21T13:57:35.390Z,40.10
2023-05-21T14:00:02.527Z,39.70
2023-05-21T14:02:29.614Z,39.90
2023-05-21T14:04:56.665Z,39.40
2023-05-21T14:07:23.574Z,39.20
2023-05-21T14:09:50.544Z,38.70
2023-05-21T14:12:17.700Z,38.60
2023-05-21T14:14:44.756Z,37.80
2023-05-21T14:17:11.784Z,38.10
2023-05-21T14:19:38.713Z,38.20
2023-05-21T14:22:05.797Z,38.40
2023-05-21T14:24:33.406Z,38.10
2023-05-21T14:27:00.375Z,38.00
2023-05-21T14:29:27.334Z,36.90
2023-05-21T14:31:54.326Z,37.30
2023-05-21T14:34:21.296Z,36.70
2023-05-21T14:36:48.207Z,36.30
2023-05-21T14:39:15.579Z,35.90
2023-05-21T14:41:42.752Z,35.90
2023-05-21T14:44:09.664Z,34.70
2023-05-21T14:46:36.950Z,34.40
2023-05-21T14:49:04.086Z,34.30
2023-05-21T14:51:31.772Z,33.50
2023-05-21T14:53:59.081Z,33.60
2023-05-21T14:56:27.859Z,33.40
2023-05-21T14:58:55.145Z,33.00
2023-05-21T15:01:22.202Z,32.90
2023-05-21T15:03:49.444Z,32.90
2023-05-21T15:06:16.616Z,32.70
2023-05-21T15:08:43.602Z,32.70
2023-05-21T15:11:10.581Z,32.00
2023-05-21T15:13:38.042Z,32.10
2023-05-21T15:16:05.220Z,31.60
2023-05-21T15:18:32.221Z,31.30
2023-05-21T15:20:59.370Z,30.90
2023-05-21T15:23:26.343Z,30.30
2023-05-21T15:25:53.291Z,30.30
2023-05-21T15:28:20.277Z,30.40
2023-05-21T15:30:47.298Z,30.10
2023-05-21T15:33:14.251Z,30.20
2023-05-21T15:35:41.604Z,30.50
2023-05-21T15:38:08.874Z,30.50
2023-05-21T15:40:35.962Z,30.50
2023-05-21T15:43:02.896Z,30.00
2023-05-21T15:45:29.840Z,30.20
2023-05-21T15:47:57.296Z,30.30
2023-05-21T15:50:24.355Z,30.50
2023-05-21T15:52:53.368Z,30.70
2023-05-21T15:55:21.045Z,30.80
2023-05-21T15:57:47.942Z,31.10
2023-05-21T16:00:15.348Z,31.50
2023-05-21T16:02:42.642Z,31.70
2023-05-21T16:05:10.008Z,32.10
2023-05-21T16:07:38.377Z,32.70
2023-05-21T16:10:06.636Z,33.00
2023-05-21T16:12:33.704Z,33.90
2023-05-21T16:15:00.873Z,34.20
2023-05-21T16:17:27.939Z,34.80
2023-05-21T16:19:54.900Z,35.20
2023-05-21T16:22:23.266Z,35.90
2023-05-21T16:24:50.153Z,35.90
2023-05-21T16:27:17.261Z,35.80
2023-05-21T16:29:44.816Z,36.70
2023-05-21T16:32:13.981Z,37.00
2023-05-21T16:34:41.302Z,37.00
2023-05-21T16:37:10.042Z,37.30
2023-05-21T16:39:37.215Z,37.50
2023-05-21T16:42:04.331Z,37.80
2023-05-21T16:44:32.178Z,38.00
2023-05-21T16:46:59.627Z,37.80
2023-05-21T16:49:27.625Z,37.70
2023-05-21T16:51:54.721Z,38.10
2023-05-21T16:54:21.940Z,38.10
2023-05-21T16:56:48.912Z,38.70
2023-05-21T16:59:16.051Z,38.70
2023-05-21T17:01:43.079Z,38.70
2023-05-21T17:04:10.299Z,38.80
2023-05-21T17:06:37.273Z,39.10
2023-05-21T17:09:04.248Z,39.20
2023-05-21T17:11:31.274Z,39.10
2023-05-21T17:13:58.230Z,39.10
2023-05-21T17:16:25.237Z,39.10
2023-05-21T17:18:52.298Z,39.20
2023-05-21T17:21:19.758Z,39.10
2023-05-21T17:23:46.746Z,39.40
2023-05-21T17:26:14.054Z,39.70
2023-05-21T17:28:41.110Z,40.00
2023-05-21T17:31:09.052Z,39.80
2023-05-21T17:33:37.739Z,39.70
2023-05-21T17:36:04.937Z,39.60
2023-05-21T17:38:31.865Z,39.60
2023-05-21T17:40:59.396Z,39.70
2023-05-21T17:43:32.098Z,39.90
2023-05-21T17:45:59.127Z,40.00
2023-05-21T17:48:26.583Z,40.10
2023-05-21T17:50:53.635Z,40.20
2023-05-21T17:53:20.755Z,40.70
2023-05-21T17:55:47.673Z,40.50
2023-05-21T17:58:14.697Z,40.70
2023-05-21T18:00:41.719Z,40.50
2023-05-21T18:03:08.801Z,40.70
2023-05-21T18:05:36.543Z,41.00
2023-05-21T18:08:04.191Z,40.70
2023-05-21T18:10:31.122Z,40.90
2023-05-21T18:12:58.035Z,41.80
2023-05-21T18:15:25.008Z,41.10
2023-05-21T18:17:52.015Z,41.30
2023-05-21T18:20:19.086Z,41.20
2023-05-21T18:22:46.023Z,41.30
2023-05-21T18:25:13.017Z,41.40
2023-05-21T18:27:40.033Z,41.20
2023-05-21T18:30:08.372Z,41.40
2023-05-21T18:32:38.922Z,41.00
2023-05-21T18:35:08.162Z,41.30
2023-05-21T18:37:35.134Z,41.30
2023-05-21T18:40:02.067Z,41.50
2023-05-21T18:42:29.045Z,41.20
2023-05-21T18:44:56.156Z,41.70
2023-05-21T18:47:23.196Z,41.40
2023-05-21T18:49:50.749Z,41.40
2023-05-21T18:52:17.672Z,41.30
2023-05-21T18:54:44.594Z,41.50
2023-05-21T18:57:12.120Z,41.70
2023-05-21T18:59:39.068Z,41.90
2023-05-21T19:02:06.291Z,42.00
2023-05-21T19:04:33.547Z,42.00
2023-05-21T19:07:00.657Z,42.20
2023-05-21T19:09:27.529Z,42.50
2023-05-21T19:11:55.034Z,42.60
2023-05-21T19:14:21.972Z,42.70
2023-05-21T19:16:48.899Z,42.90
2023-05-21T19:19:16.659Z,42.90
2023-05-21T19:21:43.661Z,42.90
2023-05-21T19:24:10.644Z,43.10
2023-05-21T19:26:37.582Z,43.40
2023-05-21T19:29:04.527Z,43.40
2023-05-21T19:31:31.471Z,43.50
2023-05-21T19:33:58.475Z,43.60
2023-05-21T19:36:25.533Z,43.60
2023-05-21T19:38:52.447Z,43.70
2023-05-21T19:41:22.096Z,44.00
2023-05-21T19:43:49.001Z,44.40
2023-05-21T19:46:19.809Z,44.20
2023-05-21T19:48:47.494Z,44.20
2023-05-21T19:51:14.411Z,44.20
2023-05-21T19:53:41.376Z,44.60
2023-05-21T19:56:08.599Z,44.70
2023-05-21T19:58:35.694Z,44.80
2023-05-21T20:01:03.469Z,45.00
2023-05-21T20:03:35.832Z,45.00
2023-05-21T20:06:03.656Z,44.90
2023-05-21T20:08:30.978Z,45.20
2023-05-21T20:10:57.946Z,45.20
2023-05-21T20:13:24.998Z,45.40
2023-05-21T20:15:51.966Z,45.70
2023-05-21T20:18:21.524Z,45.70
2023-05-21T20:20:49.236Z,46.30
2023-05-21T20:23:16.211Z,45.70
2023-05-21T20:25:43.277Z,46.20
2023-05-21T20:28:10.302Z,46.70
2023-05-21T20:30:53.697Z,46.40
2023-05-21T20:33:20.971Z,46.30
2023-05-21T20:35:47.952Z,46.30
2023-05-21T20:38:15.996Z,46.30
2023-05-21T20:40:43.914Z,46.40
2023-05-21T20:43:12.138Z,46.40
2023-05-21T20:45:39.547Z,46.40
2023-05-21T20:48:07.153Z,46.70
2023-05-21T20:50:35.169Z,46.80
2023-05-21T20:53:02.207Z,47.40
2023-05-21T20:55:34.689Z,47.70
2023-05-21T20:58:03.188Z,48.00
2023-05-21T21:00:31.780Z,48.10
2023-05-21T21:03:01.333Z,47.60
2023-05-21T21:05:28.700Z,47.70
2023-05-21T21:07:56.028Z,47.70
2023-05-21T21:10:23.075Z,47.90
2023-05-21T21:12:50.147Z,48.50
2023-05-21T21:15:17.256Z,49.10
2023-05-21T21:17:44.375Z,49.40
2023-05-21T21:20:13.819Z,49.80
2023-05-21T21:22:41.303Z,50.30
2023-05-21T21:25:08.752Z,50.40
2023-05-21T21:27:35.821Z,50.20
2023-05-21T21:30:04.665Z,49.90
2023-05-21T21:32:31.587Z,49.20
2023-05-21T21:34:58.605Z,48.80
2023-05-21T21:37:25.681Z,48.80
2023-05-21T21:39:52.564Z,48.80
2023-05-21T21:42:19.464Z,48.60
2023-05-21T21:44:46.436Z,49.20
2023-05-21T21:47:13.394Z,48.60
2023-05-21T21:49:40.521Z,48.80
2023-05-21T21:52:08.244Z,48.90
2023-05-21T21:54:35.428Z,48.90
2023-05-21T21:57:02.343Z,49.40
2023-05-21T21:59:29.427Z,49.80
2023-05-21T22:01:56.477Z,49.70
2023-05-21T22:04:23.622Z,49.20
2023-05-21T22:06:50.556Z,49.20
2023-05-21T22:09:17.683Z,49.20
2023-05-21T22:11:44.706Z,49.20
2023-05-21T22:14:11.848Z,48.80
2023-05-21T22:16:38.868Z,49.20
2023-05-21T22:19:05.830Z,49.20
2023-05-21T22:21:33.232Z,49.50
2023-05-21T22:24:00.602Z,50.10
2023-05-21T22:26:27.553Z,49.30
2023-05-21T22:28:54.667Z,49.40
2023-05-21T22:31:21.652Z,49.70
2023-05-21T22:33:48.677Z,49.80
2023-05-21T22:36:15.824Z,49.90
2023-05-21T22:38:43.866Z,50.20
2023-05-21T22:41:11.488Z,50.40
2023-05-21T22:43:38.422Z,50.00
2023-05-21T22:46:05.598Z,50.30
2023-05-21T22:48:34.555Z,50.00
2023-05-21T22:51:02.027Z,49.40
2023-05-21T22:53:29.090Z,49.70
2023-05-21T22:55:56.090Z,49.30
2023-05-21T22:58:22.978Z,49.10
2023-05-21T23:00:49.986Z,49.30
2023-05-21T23:03:17.550Z,50.70
2023-05-21T23:05:45.197Z,51.70
2023-05-21T23:08:12.483Z,52.00
2023-05-21T23:10:40.817Z,51.50
2023-05-21T23:13:07.966Z,51.20
2023-05-21T23:15:38.860Z,51.40
2023-05-21T23:18:07.785Z,51.00
2023-05-21T23:20:34.911Z,50.90
2023-05-21T23:23:01.861Z,50.70
2023-05-21T23:25:28.817Z,50.30
2023-05-21T23:27:55.757Z,50.30
2023-05-21T23:30:22.670Z,50.30
2023-05-21T23:32:50.773Z,50.90
2023-05-21T23:35:17.776Z,51.00
2023-05-21T23:37:44.704Z,51.10
2023-05-21T23:40:12.502Z,51.00
2023-05-21T23:42:39.428Z,50.90
2023-05-21T23:45:06.850Z,50.70
2023-05-21T23:47:33.759Z,49.80
2023-05-21T23:50:00.758Z,49.50
2023-05-21T23:52:27.680Z,49.50
2023-05-21T23:54:54.687Z,50.00
2023-05-21T23:57:21.612Z,49.20
2023-05-21T23:59:48.500Z,49.40
